»·PEaware :: SKW3071 KPHX-KPSP

SKW3071 :: KPHX-KPSP

FLIGHT INFORMATION

Flight Status: Arrived
Operator:
SkyWest Airlines
More flights by this operator :: More flights under this callsign
Pilot: Chris O. (30060)
Aircraft: CANADAIR CL-600 CRJ-700
(CRJ7)
More flights by this aircraft type
Origin: KPHX Phoenix Sky Harbor Intl
United States
Destination: KPSP Palm Springs Intl
United States
More flights between these airports :: More routes between these airports
Route: KEENS2 HRRBR CURIV J212 DECAS SBONO1
File this flight plan on PilotEdge
Remarks: RMK / SIMBRIEF
Altitude:
(Current/Filed)
26,000ft
Speed:
(Current/Filed)
395kts
Departed: 23-Aug-22 12:33 PM
Arrived: 23-Aug-22 01:17 PM
Distance/Time
Traveled:
226nm/0:44
Distance/Time
To Go:
Arrived

Flight Plot

Page will automatically refresh every two minutes.

Flight plan parsing failed; only flown route is shown


Map Options




Map Legend


Flown Route
Filed Route
Departure Airport
Arrival Airport
Navaid (VOR, NDB)
Fix

Horizontal Profiles

Position Reports

Time Latitude Longitude Heading Altitude Ground
Speed
23-Aug-22 12:11 33.437617 -112.002402 99 1127ft 0kts
23-Aug-22 12:12 33.437617 -112.002402 99 1127ft 0kts
23-Aug-22 12:13 33.437617 -112.002402 99 1127ft 0kts
23-Aug-22 12:14 33.437617 -112.002402 99 1127ft 0kts
23-Aug-22 12:15 33.437617 -112.002402 99 1127ft 0kts
23-Aug-22 12:16 33.437617 -112.002402 99 1127ft 0kts
23-Aug-22 12:17 33.437617 -112.002402 99 1127ft 0kts
23-Aug-22 12:18 33.437617 -112.002402 99 1127ft 0kts
23-Aug-22 12:19 33.437617 -112.002402 99 1127ft 0kts
23-Aug-22 12:20 33.437617 -112.002402 99 1127ft 0kts
23-Aug-22 12:21 33.437644 -112.002595 99 1127ft 4kts
23-Aug-22 12:22 33.437639 -112.003089 60 1127ft 0kts
23-Aug-22 12:23 33.437639 -112.003089 60 1127ft 0kts
23-Aug-22 12:24 33.437639 -112.003089 60 1127ft 0kts
23-Aug-22 12:25 33.438676 -112.003802 180 1127ft 10kts
23-Aug-22 12:26 33.432677 -112.003818 179 1123ft 20kts
23-Aug-22 12:27 33.432141 -112.010154 269 1124ft 28kts
23-Aug-22 12:28 33.432178 -112.018161 273 1117ft 11kts
23-Aug-22 12:29 33.432159 -112.022297 271 1114ft 24kts
23-Aug-22 12:30 33.431989 -112.026892 206 1111ft 0kts
23-Aug-22 12:31 33.431075 -112.026554 95 1111ft 10kts
23-Aug-22 12:32 33.430663 -111.994969 93 1543ft 183kts
23-Aug-22 12:33 33.430752 -111.934634 90 4793ft 201kts
23-Aug-22 12:34 33.428980 -111.865163 103 8143ft 222kts
23-Aug-22 12:35 33.370742 -111.842951 197 11459ft 284kts
23-Aug-22 12:36 33.343421 -111.929247 284 15536ft 336kts
23-Aug-22 12:37 33.367443 -112.046125 281 19621ft 393kts
23-Aug-22 12:38 33.391043 -112.182299 282 23709ft 445kts
23-Aug-22 12:39 33.417882 -112.329982 282 25907ft 452kts
23-Aug-22 12:40 33.444712 -112.477249 282 25909ft 454kts
23-Aug-22 12:41 33.467194 -112.626485 275 25875ft 453kts
23-Aug-22 12:42 33.479138 -112.775265 275 25871ft 446kts
23-Aug-22 12:43 33.494035 -112.921747 280 25872ft 438kts
23-Aug-22 12:44 33.515664 -113.064494 280 25870ft 432kts
23-Aug-22 12:45 33.537520 -113.204994 281 25871ft 427kts
23-Aug-22 12:46 33.560796 -113.344015 281 25871ft 422kts
23-Aug-22 12:47 33.583772 -113.481146 281 25871ft 418kts
23-Aug-22 12:48 33.606633 -113.617105 281 25871ft 415kts
23-Aug-22 12:49 33.629571 -113.752992 281 25825ft 413kts
23-Aug-22 12:50 33.651780 -113.887751 279 25826ft 410kts
23-Aug-22 12:51 33.671074 -114.023357 279 24751ft 413kts
23-Aug-22 12:52 33.690190 -114.158822 279 23754ft 411kts
23-Aug-22 12:53 33.708991 -114.293799 279 22756ft 409kts
23-Aug-22 12:54 33.727257 -114.428176 280 21765ft 408kts
23-Aug-22 12:55 33.745565 -114.563151 280 20771ft 409kts
23-Aug-22 12:56 33.763657 -114.697999 279 19777ft 409kts
23-Aug-22 12:57 33.781737 -114.833073 279 18775ft 410kts
23-Aug-22 12:58 33.799961 -114.968156 280 17780ft 411kts
23-Aug-22 12:59 33.818236 -115.103703 280 16784ft 411kts
23-Aug-22 13:00 33.836456 -115.239226 280 15790ft 408kts
23-Aug-22 13:01 33.854413 -115.370916 280 14776ft 391kts
23-Aug-22 13:02 33.871339 -115.497998 280 13765ft 378kts
23-Aug-22 13:03 33.887648 -115.621448 280 12757ft 369kts
23-Aug-22 13:04 33.910159 -115.737378 284 11773ft 361kts
23-Aug-22 13:05 33.911771 -115.856524 269 10765ft 341kts
23-Aug-22 13:06 33.900650 -115.959671 240 8688ft 299kts
23-Aug-22 13:07 33.838479 -116.021230 211 6932ft 283kts
23-Aug-22 13:08 33.773853 -116.069924 211 6519ft 271kts
23-Aug-22 13:09 33.710605 -116.117618 211 4731ft 267kts
23-Aug-22 13:10 33.655007 -116.171437 252 3935ft 259kts
23-Aug-22 13:11 33.680386 -116.249279 301 3927ft 259kts
23-Aug-22 13:12 33.718737 -116.321968 301 3923ft 251kts
23-Aug-22 13:13 33.752439 -116.387519 301 2894ft 223kts
23-Aug-22 13:14 33.779947 -116.449759 299 1795ft 174kts
23-Aug-22 13:15 33.811056 -116.491163 321 679ft 163kts
23-Aug-22 13:16 33.835304 -116.512672 323 447ft 34kts
23-Aug-22 13:17 33.832385 -116.512213 143 439ft 43kts
23-Aug-22 13:18 33.824488 -116.506971 200 415ft 18kts
23-Aug-22 13:19 33.823774 -116.506946 170 413ft 0kts
23-Aug-22 13:20 33.823774 -116.506946 170 413ft 0kts

Navigation Log

Ident Type
Flight plan parsing failed, navigation log unavailable